Terminal Aerodrome Forecast
Issued by NWS Grand Forks, ND

Home | Current Version | Previous Version | Graphics & Text | Print | Product List | Glossary On
Versions: 1 2 3 4 5 6 7 8 9 10 11 12 13 14
000
FTUS43 KFGF 142331
TAFFAR
TAF
KFAR 142331Z 1500/1524 36009KT P6SM OVC060
      TEMPO 1500/1502 5SM -RA OVC045
     FM150200 33007KT P6SM BKN070
     FM150500 33008KT P6SM SCT130
     FM151000 29004KT P6SM FEW250
     FM151700 23008KT P6SM BKN100
     FM152000 26010G18KT P6SM SCT080=

USA.gov is the U.S. government's official web portal to all federal, state and local government web resources and services.